Latest Weather Observations for Newcastle Nobbys

IDN60901

Issued at 5:35 pm EDT Saturday 1 November 2014 (issued every 10 minutes, with the page automatically refreshed every 10 minutes)

About weather observations | Map of Sydney area stations | Latest observations for Sydney area | Other Formats
Station Details ID: 061055 Name: NEWCASTLE NOBBYS SIGNAL STATION AWS Lat: -32.92 Lon: 151.80 Height: 33.0 m
Data from the previous 72 hours. | See also: Recent months at Newcastle Nobbys
Date/Time
EDT
Tmp

°C
App
Tmp
°C
Dew
Point
°C
Rel
Hum
%
Delta-T

°C
Wind Press
QNH
hPa
Press
MSL
hPa
Rain
since
9 am
mm
Dir
 
Spd
km/h
Gust
km/h
Spd
kts
Gust
kts
01/05:30pm 29.8 27.1 14.7 39 9.2 NW 22 30 12 16 - - 0.0
01/05:00pm 28.5 24.1 16.7 48 7.4 WNW 35 46 19 25 - - 0.0
01/04:30pm 32.4 23.3 13.6 32 11.4 NW 54 80 29 43 - - 0.0
01/04:27pm 33.0 24.9 13.1 30 12.0 NW 48 80 26 43 - - 0.0
01/04:14pm 33.9 27.7 12.8 28 12.7 NW 37 59 20 32 - - 0.0
01/04:00pm 34.4 27.5 12.7 27 13.0 NW 41 50 22 27 - - 0.0
01/03:38pm 33.3 27.7 14.4 32 11.6 NW 37 50 20 27 - - 0.0
01/03:34pm 33.4 28.6 14.0 31 11.8 N 32 59 17 32 - - 0.0
01/03:30pm 32.7 28.2 13.8 31 11.5 N 30 39 16 21 - - 0.0
01/03:24pm 33.5 29.3 13.5 29 12.1 N 28 32 15 17 - - 0.0
01/03:02pm 34.4 28.2 13.8 29 12.6 NW 39 57 21 31 - - 0.0
01/03:00pm 34.5 27.6 13.9 29 12.6 NW 43 57 23 31 - - 0.0
01/02:31pm 33.6 26.4 13.6 29 12.2 NW 44 65 24 35 - - 0.0
01/02:30pm 33.7 26.1 13.7 30 12.2 NW 46 65 25 35 - - 0.0
01/02:06pm 34.1 27.8 13.5 28 12.5 NW 39 59 21 32 - - 0.0
01/02:00pm 34.2 27.2 13.6 29 12.5 NW 43 59 23 32 - - 0.0
01/01:44pm 33.9 27.9 13.4 29 12.4 NW 37 57 20 31 - - 0.0
01/01:30pm 34.1 27.4 13.5 28 12.5 NW 41 56 22 30 - - 0.0
01/01:00pm 33.3 27.1 13.9 31 11.8 NNW 39 59 21 32 - - 0.0
01/12:53pm 33.3 27.0 13.4 30 12.0 NNW 39 59 21 32 - - 0.0
01/12:30pm 33.5 27.5 14.5 31 11.7 NW 39 52 21 28 - - 0.0
01/12:16pm 33.0 26.4 13.6 31 11.8 NW 41 67 22 36 - - 0.0
01/12:00pm 32.7 27.6 13.8 31 11.5 NW 33 44 18 24 - - 0.0
01/11:30am 31.6 26.7 14.3 35 10.5 NNW 33 43 18 23 - - 0.0
01/11:00am 30.8 26.0 14.0 36 10.2 NW 32 41 17 22 - - 0.0
01/10:31am 29.8 25.2 14.7 39 9.2 NNW 32 52 17 28 - - 0.0
01/10:30am 29.6 25.8 15.7 43 8.6 NNW 30 46 16 25 - - 0.0
01/10:29am 29.3 25.5 15.8 44 8.3 NNW 30 46 16 25 - - 0.0
01/10:00am 25.2 24.3 16.9 60 5.1 NNE 17 20 9 11 - - 0.0
01/09:30am 25.7 25.1 15.7 54 6.1 N 13 20 7 11 - - 0.0
01/09:00am 24.9 25.4 16.6 60 5.1 NNE 9 13 5 7 - - -
01/08:30am 23.6 23.5 16.1 62 4.6 NNE 11 15 6 8 - - -
01/08:00am 23.3 22.9 16.1 64 4.4 NNE 13 15 7 8 - - -
01/07:30am 22.2 22.4 15.8 67 3.8 NNE 9 13 5 7 - - -
01/07:00am 22.6 23.5 16.2 67 3.9 NE 6 7 3 4 - - -
01/06:30am 22.7 22.6 16.0 66 4.1 NW 11 13 6 7 - - -
01/06:00am 22.6 23.1 16.6 69 3.7 W 9 13 5 7 - - -
01/05:30am 23.4 24.2 14.7 58 5.2 NNE 4 7 2 4 - - -
01/05:00am 21.9 22.9 16.4 71 3.3 NNW 6 20 3 11 - - -
01/04:30am 22.5 23.8 15.1 63 4.4 SE 2 6 1 3 - - -
01/04:00am 23.2 21.5 15.8 63 4.5 NW 19 26 10 14 - - -
01/03:30am 24.6 21.6 14.7 54 5.9 NNW 24 32 13 17 - - -
01/03:00am - - - - - NNW 26 37 14 20 - - -
01/02:30am - - - - - NW 24 30 13 16 - - -
01/02:00am 25.5 21.1 14.0 49 6.8 NW 30 39 16 21 - - 0.0
01/01:30am 25.4 21.6 14.8 52 6.4 NNW 28 33 15 18 - - 0.0
01/01:00am 25.1 22.9 14.9 53 6.1 NNW 20 24 11 13 - - 0.0
01/12:30am 26.3 23.7 13.8 46 7.4 NW 20 30 11 16 - - 0.0
01/12:00am 25.4 20.2 14.5 51 6.5 NW 35 46 19 25 - - 0.0
 
Date/Time
EDT
Tmp

°C
App
Tmp
°C
Dew
Point
°C
Rel
Hum
%
Delta-T

°C
Wind Press
QNH
hPa
Press
MSL
hPa
Rain
since
9 am
mm
Dir
 
Spd
km/h
Gust
km/h
Spd
kts
Gust
kts
31/11:47pm 24.0 20.9 16.5 63 4.6 NNW 28 46 15 25 - - 0.0
31/11:30pm 21.7 22.6 18.3 81 2.1 NNE 11 22 6 12 - - 0.0
31/11:00pm 21.3 21.3 18.1 82 2.0 NE 15 19 8 10 - - 0.0
31/10:30pm 21.3 21.0 18.3 83 1.9 NE 17 20 9 11 - - 0.0
31/10:00pm 21.3 21.0 18.3 83 1.9 NE 17 22 9 12 - - 0.0
31/09:30pm 21.4 20.1 18.2 82 2.0 ENE 22 26 12 14 - - 0.0
31/09:00pm 21.1 20.1 17.9 82 2.0 ENE 20 28 11 15 - - 0.0
31/08:30pm 21.1 19.6 17.7 81 2.1 ENE 22 28 12 15 - - 0.0
31/08:00pm 21.7 20.6 17.7 78 2.5 ENE 20 26 11 14 - - 0.0
31/07:30pm 22.4 20.8 17.5 74 3.0 ENE 22 30 12 16 - - 0.0
31/07:00pm 22.7 20.1 16.9 70 3.6 ENE 26 33 14 18 - - 0.0
31/06:30pm 23.4 21.2 16.9 67 4.0 ENE 24 32 13 17 - - 0.0
31/06:00pm 23.7 20.6 16.5 64 4.4 ENE 28 33 15 18 - - 0.0
31/05:30pm 23.4 20.1 16.0 63 4.5 ENE 28 35 15 19 - - 0.0
31/05:00pm 22.4 20.6 16.9 71 3.4 ENE 22 28 12 15 - - 0.0
31/04:30pm 22.3 20.1 17.0 72 3.3 ENE 24 30 13 16 - - 0.0
31/04:00pm 22.2 19.1 17.6 75 2.8 ENE 30 35 16 19 - - 0.0
31/03:30pm 22.1 19.2 17.9 77 2.6 ENE 30 35 16 19 - - 0.0
31/03:00pm 22.8 19.6 17.3 71 3.4 ENE 30 37 16 20 - - 0.0
31/02:30pm 22.4 22.7 17.8 75 2.9 E 13 26 7 14 - - 0.0
31/02:00pm 22.7 23.3 18.5 77 2.6 E 13 15 7 8 - - 0.0
31/01:30pm 22.6 23.2 18.6 78 2.5 E 13 17 7 9 - - 0.0
31/01:00pm 22.4 22.4 18.0 76 2.7 E 15 17 8 9 - - 0.0
31/12:30pm 22.8 22.9 17.5 72 3.3 E 13 15 7 8 - - 0.0
31/12:00pm 22.8 22.1 16.4 67 3.9 E 15 19 8 10 - - 0.0
31/11:30am 23.1 23.0 16.9 68 3.8 E 13 15 7 8 - - 0.0
31/11:00am 22.8 22.3 15.9 65 4.2 E 13 17 7 9 - - 0.0
31/10:30am 23.5 23.6 16.5 65 4.3 ENE 11 15 6 8 - - 0.0
31/10:00am 24.5 24.2 15.4 57 5.5 NNE 11 11 6 6 - - 0.0
31/09:30am 22.7 22.3 15.3 63 4.4 N 11 13 6 7 - - 0.0
31/09:00am 21.3 20.8 14.9 67 3.8 N 11 11 6 6 - - 0.0
31/08:30am 20.4 20.7 15.0 71 3.2 N 7 9 4 5 - - 0.0
31/08:00am 19.2 18.9 13.4 69 3.3 NNW 7 9 4 5 - - 0.0
31/07:30am 17.9 17.5 13.0 73 2.8 NW 7 9 4 5 - - 0.0
31/07:00am 17.0 15.9 13.1 78 2.2 NW 11 17 6 9 - - 0.0
31/06:30am 16.8 14.7 13.5 81 1.9 NNW 17 20 9 11 - - 0.0
31/06:00am 16.8 15.2 13.9 83 1.6 NNW 15 19 8 10 - - 0.0
31/05:30am 16.4 14.7 13.5 83 1.6 NW 15 17 8 9 - - 0.0
31/05:00am 16.2 15.7 13.7 85 1.4 NNW 9 13 5 7 - - 0.0
31/04:30am 16.4 15.7 14.4 88 1.1 NNW 11 13 6 7 - - 0.0
31/04:00am 16.7 16.8 14.5 87 1.3 N 7 7 4 4 - - 0.0
31/03:30am 17.6 18.1 14.9 84 1.6 NNW 6 7 3 4 - - 0.0
31/03:00am 18.2 18.7 15.1 82 1.8 N 6 7 3 4 - - 0.0
31/02:30am 17.6 17.8 14.3 81 1.9 NW 6 9 3 5 - - 0.0
31/02:00am 18.9 20.7 16.5 86 1.4 N 2 7 1 4 - - 0.0
31/01:30am 18.9 20.4 15.8 82 1.8 N 2 4 1 2 - - 0.0
31/01:00am 19.1 20.7 16.0 82 1.8 NNW 2 4 1 2 - - 0.0
31/12:30am 19.4 20.5 15.7 79 2.2 WNW 4 7 2 4 - - 0.0
31/12:00am 19.3 20.8 15.6 79 2.2 NNW 2 6 1 3 - - 0.0
 
Date/Time
EDT
Tmp

°C
App
Tmp
°C
Dew
Point
°C
Rel
Hum
%
Delta-T

°C
Wind Press
QNH
hPa
Press
MSL
hPa
Rain
since
9 am
mm
Dir
 
Spd
km/h
Gust
km/h
Spd
kts
Gust
kts
30/11:30pm 19.6 21.3 16.3 81 2.0 NW 2 4 1 2 - - 0.0
30/11:00pm 19.8 20.8 16.3 80 2.1 NNE 6 9 3 5 - - 0.0
30/10:30pm 20.1 20.8 15.7 76 2.6 ENE 6 9 3 5 - - 0.0
30/10:00pm 20.1 21.2 16.5 80 2.2 ENE 6 9 3 5 - - 0.0
30/09:30pm 20.1 21.0 16.1 78 2.4 NE 6 9 3 5 - - 0.0
30/09:00pm 20.5 20.9 16.3 77 2.5 NE 9 15 5 8 - - 0.0
30/08:30pm 20.2 20.3 16.4 79 2.3 ENE 11 11 6 6 - - 0.0
30/08:00pm 19.8 20.6 17.2 85 1.6 E 9 11 5 6 - - 0.0
30/07:30pm 19.7 20.8 17.1 85 1.6 ESE 7 11 4 6 - - 0.0
30/07:00pm 19.9 21.0 17.1 84 1.7 SE 7 9 4 5 - - 0.0
30/06:30pm 20.2 20.4 16.8 81 2.1 ESE 11 15 6 8 - - 0.0
30/06:00pm 20.5 20.2 17.3 82 2.0 E 15 19 8 10 - - 0.0
30/05:30pm 20.9 20.7 17.7 82 2.0 E 15 17 8 9 - - 0.0
30/05:00pm 21.1 20.2 17.7 81 2.1 E 19 20 10 11 - - 0.0
30/04:30pm 21.0 21.2 17.6 81 2.1 ESE 13 15 7 8 - - 0.0
30/04:00pm 21.3 21.4 17.5 79 2.3 ESE 13 17 7 9 - - 0.0
30/03:30pm 21.0 21.5 17.4 80 2.2 ESE 11 15 6 8 - - 0.0
30/03:00pm 20.8 20.7 17.0 79 2.3 ESE 13 15 7 8 - - 0.0
30/02:30pm 20.9 20.7 16.7 77 2.6 ESE 13 15 7 8 - - 0.0
30/02:00pm 21.0 21.1 16.6 76 2.7 ESE 11 15 6 8 - - 0.0
30/01:30pm 22.0 21.4 16.7 72 3.2 E 15 19 8 10 - - 0.0
30/01:00pm 21.6 19.9 16.3 72 3.2 E 20 24 11 13 - - 0.0
30/12:30pm 21.8 20.0 15.9 69 3.5 E 20 24 11 13 - - 0.0
30/12:00pm 23.5 23.1 16.1 63 4.5 E 13 17 7 9 - - 0.0
30/11:30am 24.7 25.2 15.6 57 5.5 NNE 7 9 4 5 - - 0.0
30/11:00am 24.5 24.3 15.7 58 5.3 N 11 15 6 8 - - 0.0
30/10:30am 23.8 23.1 15.3 59 5.1 NNW 13 17 7 9 - - 0.0
30/10:00am 22.1 20.8 14.7 63 4.4 NNW 15 19 8 10 - - 0.0
30/09:30am 20.4 18.9 14.1 67 3.7 NW 15 20 8 11 - - 0.0
30/09:00am 19.3 17.8 14.1 72 3.0 NNW 15 19 8 10 - - 0.0
30/08:30am 18.3 16.3 13.8 75 2.6 NW 17 20 9 11 - - 0.0
30/08:00am 17.0 14.9 13.5 80 2.0 NW 17 20 9 11 - - 0.0
30/07:30am 16.0 14.0 13.8 87 1.2 NW 17 20 9 11 - - 0.0
30/07:00am 14.8 13.4 13.3 91 0.8 NNW 13 20 7 11 - - 0.0
30/06:30am 14.4 12.9 13.1 92 0.7 NNW 13 15 7 8 - - 0.0
30/06:00am 14.9 14.3 13.4 91 0.8 NNW 9 11 5 6 - - 0.0
30/05:30am 15.4 15.3 13.8 90 0.9 NW 7 9 4 5 - - 0.0
30/05:00am 15.9 15.9 13.7 87 1.2 NW 6 9 3 5 - - 0.0
30/04:30am 16.7 15.9 14.0 84 1.5 N 11 13 6 7 - - 0.0
30/04:00am 16.8 16.4 14.1 84 1.5 N 9 9 5 5 - - 0.0
30/03:30am 17.4 16.7 14.3 82 1.8 NNE 11 13 6 7 - - 0.0
30/03:00am 17.7 17.5 14.6 82 1.8 NE 9 13 5 7 - - 0.0
30/02:30am 17.9 17.4 15.0 83 1.7 NE 11 15 6 8 - - 0.0
30/02:00am 18.0 16.8 15.1 83 1.7 NE 15 19 8 10 - - 0.0
30/01:30am 18.1 16.9 15.0 82 1.8 NE 15 19 8 10 - - 0.0
30/01:00am 18.2 17.4 15.1 82 1.8 ENE 13 19 7 10 - - 0.0
30/12:30am 18.2 17.4 15.1 82 1.8 ENE 13 19 7 10 - - 0.0
30/12:00am 18.2 17.0 15.1 82 1.8 ENE 15 20 8 11 - - 0.0
 
Date/Time
EDT
Tmp

°C
App
Tmp
°C
Dew
Point
°C
Rel
Hum
%
Delta-T

°C
Wind Press
QNH
hPa
Press
MSL
hPa
Rain
since
9 am
mm
Dir
 
Spd
km/h
Gust
km/h
Spd
kts
Gust
kts
29/11:30pm 18.2 16.6 15.1 82 1.8 ENE 17 20 9 11 - - 0.0
29/11:00pm 18.3 16.3 15.0 81 1.9 ENE 19 22 10 12 - - 0.0
29/10:30pm 18.4 16.8 14.9 80 2.0 ENE 17 26 9 14 - - 0.0
29/10:00pm 18.5 16.2 14.6 78 2.3 NE 20 26 11 14 - - 0.0
29/09:30pm 18.6 15.9 14.5 77 2.4 NE 22 30 12 16 - - 0.0
29/09:00pm 18.7 16.1 15.0 79 2.2 ENE 22 30 12 16 - - 0.0
29/08:30pm 18.7 15.6 14.6 77 2.4 ENE 24 30 13 16 - - 0.0
29/08:00pm 18.8 16.1 14.7 77 2.4 ENE 22 28 12 15 - - 0.0
29/07:30pm 18.9 16.3 15.0 78 2.3 ENE 22 32 12 17 - - 0.0
29/07:00pm 18.9 15.4 14.6 76 2.5 ENE 26 33 14 18 - - 0.0
29/06:30pm 19.3 15.4 14.3 73 2.9 ENE 28 33 15 18 - - 0.0
29/06:00pm 19.5 15.6 14.5 73 2.9 ENE 28 33 15 18 - - 0.0

Latest Capital City Observations: Canberra | Sydney | Melbourne | Brisbane | Adelaide | Perth | Hobart | Darwin

Other Formats:

Comma delimited format used in spreadsheet applications
http://www.bom.gov.au/fwo/IDN60901/IDN60901.94774.axf

JavaScript Object Notation format (JSON) in row-major order
http://www.bom.gov.au/fwo/IDN60901/IDN60901.94774.json